createdAt,value
2022-12-11T00:00:00.592Z,26.00
2022-12-11T00:01:00.601Z,26.80
2022-12-11T00:02:00.677Z,26.80
2022-12-11T00:03:00.618Z,26.70
2022-12-11T00:04:00.532Z,26.00
2022-12-11T00:05:00.551Z,26.90
2022-12-11T00:06:00.530Z,25.50
2022-12-11T00:07:00.514Z,24.70
2022-12-11T00:08:00.556Z,24.90
2022-12-11T00:09:00.484Z,25.20
2022-12-11T00:10:00.499Z,25.80
2022-12-11T00:11:00.494Z,24.60
2022-12-11T00:12:00.439Z,26.50
2022-12-11T00:13:00.452Z,25.50
2022-12-11T00:14:00.454Z,26.40
2022-12-11T00:15:00.494Z,26.70
2022-12-11T00:16:00.464Z,28.00
2022-12-11T00:17:00.415Z,26.50
2022-12-11T00:18:00.398Z,25.80
2022-12-11T00:19:00.378Z,26.10
2022-12-11T00:20:00.378Z,24.60
2022-12-11T00:21:00.475Z,25.80
2022-12-11T00:22:00.362Z,26.00
2022-12-11T00:23:00.311Z,24.90
2022-12-11T00:24:00.329Z,26.10
2022-12-11T00:25:00.306Z,25.30
2022-12-11T00:26:00.283Z,26.20
2022-12-11T00:27:00.295Z,25.00
2022-12-11T00:28:00.307Z,24.60
2022-12-11T00:29:00.256Z,25.30
2022-12-11T00:30:00.251Z,25.40
2022-12-11T00:31:00.214Z,24.60
2022-12-11T00:32:00.255Z,23.60
2022-12-11T00:33:00.227Z,25.00
2022-12-11T00:34:00.196Z,24.80
2022-12-11T00:35:00.177Z,23.60
2022-12-11T00:36:00.174Z,24.20
2022-12-11T00:37:00.258Z,24.00
2022-12-11T00:38:00.158Z,25.60
2022-12-11T00:39:00.173Z,24.20
2022-12-11T00:40:00.129Z,22.90
2022-12-11T00:41:00.150Z,23.80
2022-12-11T00:42:00.129Z,23.60
2022-12-11T00:43:00.085Z,23.60
2022-12-11T00:44:00.076Z,22.30
2022-12-11T00:45:00.069Z,23.20
2022-12-11T00:46:00.209Z,23.60
2022-12-11T00:47:00.092Z,24.10
2022-12-11T00:48:00.056Z,24.20
2022-12-11T00:49:00.028Z,22.80
2022-12-11T00:50:00.024Z,25.10
2022-12-11T00:50:59.987Z,24.60
2022-12-11T00:52:00.031Z,24.80
2022-12-11T00:53:00.022Z,24.10
2022-12-11T00:53:59.990Z,23.70
2022-12-11T00:54:59.962Z,24.20
2022-12-11T00:55:59.938Z,23.60
2022-12-11T00:56:59.964Z,24.10
2022-12-11T00:57:59.940Z,23.60
2022-12-11T00:58:59.960Z,23.40
2022-12-11T00:59:59.900Z,23.50
2022-12-11T01:00:59.922Z,24.10
2022-12-11T01:01:59.858Z,24.90
2022-12-11T01:03:00.017Z,24.40
2022-12-11T01:03:59.882Z,23.60
2022-12-11T01:04:59.883Z,22.70
2022-12-11T01:05:59.864Z,24.30
2022-12-11T01:06:59.840Z,23.60
2022-12-11T01:07:59.857Z,21.60
2022-12-11T01:08:59.805Z,22.10
2022-12-11T01:09:59.793Z,22.10
2022-12-11T01:10:59.800Z,21.80
2022-12-11T01:11:59.749Z,21.60
2022-12-11T01:12:59.760Z,21.90
2022-12-11T01:13:59.731Z,22.40
2022-12-11T01:14:59.735Z,21.70
2022-12-11T01:15:59.724Z,22.10
2022-12-11T01:16:59.757Z,22.60
2022-12-11T01:17:59.739Z,22.20
2022-12-11T01:18:59.695Z,20.90
2022-12-11T01:19:59.701Z,20.60
2022-12-11T01:20:59.675Z,21.50
2022-12-11T01:21:59.676Z,20.10
2022-12-11T01:22:59.621Z,21.50
2022-12-11T01:23:59.665Z,20.70
2022-12-11T01:24:59.615Z,20.20
2022-12-11T01:25:59.608Z,19.50
2022-12-11T01:26:59.616Z,19.40
2022-12-11T01:27:59.608Z,19.90
2022-12-11T01:28:59.552Z,19.50
2022-12-11T01:29:59.556Z,19.90
2022-12-11T01:30:59.598Z,18.80
2022-12-11T01:31:59.523Z,19.40
2022-12-11T01:32:59.534Z,19.90
2022-12-11T01:33:59.534Z,20.70
2022-12-11T01:34:59.506Z,20.10
2022-12-11T01:35:59.475Z,19.80
2022-12-11T01:36:59.485Z,21.00
2022-12-11T01:37:59.460Z,19.40
2022-12-11T01:38:59.464Z,20.40
2022-12-11T01:39:59.469Z,21.20
2022-12-11T01:40:59.415Z,21.10
2022-12-11T01:41:59.423Z,19.60
2022-12-11T01:42:59.395Z,21.00
2022-12-11T01:43:59.422Z,20.70
2022-12-11T01:44:59.414Z,19.00
2022-12-11T01:45:59.411Z,18.80
2022-12-11T01:46:59.389Z,20.30
2022-12-11T01:47:59.335Z,20.70
2022-12-11T01:48:59.331Z,20.70
2022-12-11T01:49:59.326Z,20.40
2022-12-11T01:50:59.379Z,20.00
2022-12-11T01:51:59.287Z,21.40
2022-12-11T01:52:59.290Z,20.80
2022-12-11T01:53:59.287Z,20.30
2022-12-11T01:54:59.267Z,20.40
2022-12-11T01:55:59.267Z,19.60
2022-12-11T01:56:59.256Z,19.00
2022-12-11T01:57:59.231Z,20.30
2022-12-11T01:58:59.222Z,19.20
2022-12-11T01:59:59.191Z,20.10
2022-12-11T02:00:59.316Z,20.80
2022-12-11T02:01:59.198Z,21.00
2022-12-11T02:02:59.184Z,21.20
2022-12-11T02:03:59.161Z,20.90
2022-12-11T02:04:59.139Z,19.80
2022-12-11T02:05:59.148Z,20.70
2022-12-11T02:06:59.149Z,20.80
2022-12-11T02:07:59.123Z,21.70
2022-12-11T02:08:59.132Z,21.00
2022-12-11T02:09:59.144Z,22.80
2022-12-11T02:10:59.084Z,22.00
2022-12-11T02:11:59.075Z,22.10
2022-12-11T02:12:59.040Z,22.80
2022-12-11T02:13:59.030Z,23.20
2022-12-11T02:14:59.071Z,23.70
2022-12-11T02:15:59.093Z,23.00
2022-12-11T02:16:59.026Z,23.40
2022-12-11T02:17:59.018Z,23.50
2022-12-11T02:18:58.994Z,21.60
2022-12-11T02:19:58.975Z,21.00
2022-12-11T02:20:59.046Z,21.60
2022-12-11T02:21:58.954Z,20.70
2022-12-11T02:22:58.954Z,20.40
2022-12-11T02:23:58.922Z,20.30
2022-12-11T02:24:58.931Z,20.20
2022-12-11T02:25:58.920Z,21.10
2022-12-11T02:26:58.896Z,21.90
2022-12-11T02:27:58.907Z,21.90
2022-12-11T02:28:58.862Z,22.40
2022-12-11T02:29:58.888Z,20.70
2022-12-11T02:30:58.929Z,21.20
2022-12-11T02:31:58.813Z,22.40
2022-12-11T02:32:58.821Z,22.10
2022-12-11T02:33:58.826Z,21.30
2022-12-11T02:34:58.786Z,20.90
2022-12-11T02:35:58.803Z,22.70
2022-12-11T02:36:58.792Z,23.50
2022-12-11T02:37:58.754Z,23.40
2022-12-11T02:38:58.764Z,22.50
2022-12-11T02:39:58.749Z,22.70
2022-12-11T02:40:58.749Z,23.00
2022-12-11T02:41:58.769Z,22.20
2022-12-11T02:42:58.730Z,21.90
2022-12-11T02:43:58.692Z,22.00
2022-12-11T02:44:58.664Z,20.90
2022-12-11T02:45:58.708Z,21.50
2022-12-11T02:46:58.668Z,22.90
2022-12-11T02:47:58.767Z,22.20
2022-12-11T02:48:58.626Z,20.10
2022-12-11T02:49:58.628Z,20.90
2022-12-11T02:50:58.638Z,22.60
2022-12-11T02:51:58.585Z,23.40
2022-12-11T02:52:58.576Z,22.60
2022-12-11T02:53:58.642Z,22.40
2022-12-11T02:54:58.569Z,21.50
2022-12-11T02:55:58.580Z,21.70
2022-12-11T02:56:58.526Z,22.80
2022-12-11T02:57:58.526Z,24.40
2022-12-11T02:58:58.933Z,22.50
2022-12-11T02:59:58.540Z,21.50
2022-12-11T03:00:58.565Z,22.20
2022-12-11T03:01:58.574Z,20.80
2022-12-11T03:02:58.466Z,22.20
2022-12-11T03:03:58.461Z,21.30
2022-12-11T03:04:58.487Z,21.80
2022-12-11T03:05:58.437Z,21.90
2022-12-11T03:06:58.419Z,22.00
2022-12-11T03:07:58.463Z,21.20
2022-12-11T03:08:58.411Z,21.50
2022-12-11T03:09:58.441Z,21.60
2022-12-11T03:10:58.412Z,20.40
2022-12-11T03:11:58.378Z,20.70
2022-12-11T03:12:58.361Z,19.30
2022-12-11T03:13:58.371Z,20.10
2022-12-11T03:14:58.359Z,20.20
2022-12-11T03:15:58.393Z,20.30
2022-12-11T03:16:58.329Z,20.80
2022-12-11T03:17:58.329Z,20.20
2022-12-11T03:18:58.283Z,22.00
2022-12-11T03:19:58.273Z,20.80
2022-12-11T03:20:58.292Z,21.10
2022-12-11T03:21:58.241Z,20.80
2022-12-11T03:22:58.249Z,20.60
2022-12-11T03:23:58.270Z,21.20
2022-12-11T03:24:58.213Z,20.30
2022-12-11T03:25:58.222Z,20.10
2022-12-11T03:27:00.787Z,20.90
2022-12-11T03:27:58.193Z,20.80
2022-12-11T03:28:58.162Z,20.70
2022-12-11T03:29:58.200Z,22.50
2022-12-11T03:30:58.191Z,21.30
2022-12-11T03:31:58.174Z,22.40
2022-12-11T03:32:58.127Z,21.70
2022-12-11T03:33:58.146Z,20.60
2022-12-11T03:34:58.447Z,20.60
2022-12-11T03:35:58.095Z,21.00
2022-12-11T03:36:58.093Z,21.90
2022-12-11T03:37:58.122Z,21.70
2022-12-11T03:38:58.087Z,20.70
2022-12-11T03:39:58.095Z,20.90
2022-12-11T03:40:58.108Z,21.60
2022-12-11T03:41:58.022Z,20.00
2022-12-11T03:42:58.016Z,21.50
2022-12-11T03:43:58.012Z,19.90
2022-12-11T03:44:57.984Z,20.80
2022-12-11T03:45:58.047Z,20.80
2022-12-11T03:46:57.966Z,19.90
2022-12-11T03:47:57.977Z,21.90
2022-12-11T03:48:57.937Z,20.20
2022-12-11T03:49:57.932Z,20.60
2022-12-11T03:50:57.944Z,20.00
2022-12-11T03:51:57.894Z,19.60
2022-12-11T03:52:57.929Z,20.40
2022-12-11T03:53:57.893Z,19.70
2022-12-11T03:54:57.917Z,19.50
2022-12-11T03:55:57.879Z,20.50
2022-12-11T03:56:57.883Z,20.20
2022-12-11T03:57:57.848Z,19.30
2022-12-11T03:58:57.835Z,20.50
2022-12-11T03:59:57.807Z,21.10
2022-12-11T04:00:57.862Z,20.70
2022-12-11T04:01:57.830Z,20.50
2022-12-11T04:02:57.782Z,21.90
2022-12-11T04:03:57.803Z,19.90
2022-12-11T04:04:57.789Z,19.80
2022-12-11T04:05:57.749Z,19.60
2022-12-11T04:06:57.776Z,18.40
2022-12-11T04:07:57.775Z,20.30
2022-12-11T04:08:57.717Z,19.50
2022-12-11T04:09:57.717Z,20.10
2022-12-11T04:10:57.687Z,20.30
2022-12-11T04:11:57.710Z,20.50
2022-12-11T04:12:57.692Z,20.10
2022-12-11T04:13:57.700Z,20.40
2022-12-11T04:14:57.671Z,19.60
2022-12-11T04:15:57.701Z,19.70
2022-12-11T04:16:57.667Z,20.20
2022-12-11T04:17:57.621Z,18.50
2022-12-11T04:18:57.588Z,19.60
2022-12-11T04:19:57.603Z,20.30
2022-12-11T04:20:57.579Z,20.40
2022-12-11T04:21:57.602Z,20.10
2022-12-11T04:22:57.578Z,19.10
2022-12-11T04:23:57.537Z,19.00
2022-12-11T04:24:57.550Z,19.90
2022-12-11T04:25:57.522Z,19.40
2022-12-11T04:26:57.491Z,19.50
2022-12-11T04:27:57.489Z,19.20
2022-12-11T04:28:57.510Z,19.30
2022-12-11T04:29:57.509Z,18.80
2022-12-11T04:30:57.525Z,19.00
2022-12-11T04:31:57.435Z,20.30
2022-12-11T04:32:57.435Z,19.70
2022-12-11T04:33:57.434Z,19.00
2022-12-11T04:34:57.413Z,18.70
2022-12-11T04:35:57.434Z,19.00
2022-12-11T04:36:57.401Z,18.40
2022-12-11T04:37:57.364Z,17.90
2022-12-11T04:38:57.366Z,19.00
2022-12-11T04:39:57.343Z,17.90
2022-12-11T04:40:57.365Z,17.80
2022-12-11T04:41:57.353Z,18.20
2022-12-11T04:42:57.324Z,19.00
2022-12-11T04:43:57.303Z,18.70
2022-12-11T04:44:57.335Z,18.80
2022-12-11T04:45:57.275Z,18.10
2022-12-11T04:46:57.284Z,18.80
2022-12-11T04:47:57.273Z,18.10
2022-12-11T04:48:58.013Z,18.50
2022-12-11T04:49:57.237Z,18.40
2022-12-11T04:50:57.213Z,18.60
2022-12-11T04:51:57.224Z,18.60
2022-12-11T04:52:57.183Z,17.30
2022-12-11T04:53:57.215Z,18.00
2022-12-11T04:54:57.172Z,18.70
2022-12-11T04:55:57.174Z,17.80
2022-12-11T04:56:57.190Z,18.10
2022-12-11T04:57:57.147Z,18.10
2022-12-11T04:58:57.149Z,18.20
2022-12-11T04:59:57.154Z,19.30
2022-12-11T05:00:57.095Z,19.10
2022-12-11T05:01:57.129Z,18.00
2022-12-11T05:02:57.146Z,18.50
2022-12-11T05:03:57.110Z,18.40
2022-12-11T05:04:57.055Z,18.60
2022-12-11T05:05:57.119Z,18.80
2022-12-11T05:06:57.036Z,18.50
2022-12-11T05:07:57.062Z,18.20
2022-12-11T05:08:57.052Z,18.40
2022-12-11T05:09:57.029Z,18.90
2022-12-11T05:10:56.997Z,17.50
2022-12-11T05:11:57.023Z,19.00
2022-12-11T05:12:56.987Z,18.30
2022-12-11T05:13:56.958Z,18.70
2022-12-11T05:14:56.938Z,19.00
2022-12-11T05:15:57.030Z,18.70
2022-12-11T05:16:56.941Z,18.40
2022-12-11T05:17:56.929Z,18.20
2022-12-11T05:18:56.912Z,17.60
2022-12-11T05:19:56.890Z,17.10
2022-12-11T05:20:56.901Z,17.40
2022-12-11T05:21:57.012Z,18.40
2022-12-11T05:22:56.870Z,17.60
2022-12-11T05:23:56.871Z,18.90
2022-12-11T05:24:56.842Z,18.10
2022-12-11T05:25:56.822Z,17.30
2022-12-11T05:26:56.809Z,18.20
2022-12-11T05:27:56.819Z,18.10
2022-12-11T05:28:56.799Z,17.70
2022-12-11T05:29:59.551Z,18.30
2022-12-11T05:30:56.790Z,17.80
2022-12-11T05:31:56.754Z,17.40
2022-12-11T05:32:56.728Z,17.70
2022-12-11T05:33:56.769Z,17.20
2022-12-11T05:34:56.711Z,17.30
2022-12-11T05:35:56.715Z,17.60
2022-12-11T05:36:56.697Z,17.40
2022-12-11T05:37:56.685Z,17.50
2022-12-11T05:38:56.681Z,18.30
2022-12-11T05:39:56.675Z,17.80
2022-12-11T05:40:56.654Z,17.90
2022-12-11T05:41:56.642Z,17.80
2022-12-11T05:42:56.621Z,16.20
2022-12-11T05:43:56.644Z,17.40
2022-12-11T05:44:56.620Z,16.40
2022-12-11T05:45:56.582Z,15.30
2022-12-11T05:46:56.619Z,15.60
2022-12-11T05:47:56.581Z,15.40
2022-12-11T05:48:56.541Z,15.30
2022-12-11T05:49:56.545Z,14.30
2022-12-11T05:50:56.565Z,14.30
2022-12-11T05:51:56.535Z,14.30
2022-12-11T05:52:56.525Z,13.90
2022-12-11T05:53:56.537Z,13.70
2022-12-11T05:54:56.526Z,14.30
2022-12-11T05:55:56.466Z,14.80
2022-12-11T05:56:56.473Z,14.50
2022-12-11T05:57:56.465Z,14.50
2022-12-11T05:58:56.463Z,14.80
2022-12-11T05:59:56.412Z,14.10
2022-12-11T06:00:56.466Z,15.20
2022-12-11T06:01:56.456Z,14.10
2022-12-11T06:02:56.496Z,15.70
2022-12-11T06:03:56.391Z,14.80
2022-12-11T06:04:56.385Z,15.00
2022-12-11T06:05:56.384Z,14.80
2022-12-11T06:06:56.367Z,13.60
2022-12-11T06:07:56.383Z,15.30
2022-12-11T06:08:56.327Z,14.10
2022-12-11T06:09:56.319Z,14.60
2022-12-11T06:10:56.308Z,14.20
2022-12-11T06:11:56.296Z,14.60
2022-12-11T06:12:56.319Z,15.00
2022-12-11T06:13:56.276Z,15.30
2022-12-11T06:14:56.249Z,14.80
2022-12-11T06:15:56.236Z,15.20
2022-12-11T06:16:56.216Z,15.40
2022-12-11T06:17:56.208Z,13.40
2022-12-11T06:18:58.409Z,14.20
2022-12-11T06:19:56.187Z,15.50
2022-12-11T06:20:56.190Z,14.60
2022-12-11T06:21:56.197Z,14.40
2022-12-11T06:22:56.170Z,14.70
2022-12-11T06:23:56.150Z,14.70
2022-12-11T06:24:56.176Z,15.40
2022-12-11T06:25:56.118Z,15.20
2022-12-11T06:26:56.108Z,16.00
2022-12-11T06:27:56.101Z,15.50
2022-12-11T06:28:56.093Z,15.30
2022-12-11T06:29:56.132Z,15.20
2022-12-11T06:30:56.072Z,14.30
2022-12-11T06:31:56.078Z,16.20
2022-12-11T06:32:56.044Z,15.60
2022-12-11T06:33:56.053Z,15.10
2022-12-11T06:34:56.046Z,15.40
2022-12-11T06:35:56.019Z,14.90
2022-12-11T06:36:55.990Z,15.50
2022-12-11T06:37:55.993Z,15.40
2022-12-11T06:38:56.035Z,15.60
2022-12-11T06:39:55.948Z,15.70
2022-12-11T06:40:55.950Z,16.20
2022-12-11T06:41:55.943Z,16.10
2022-12-11T06:42:55.954Z,16.60
2022-12-11T06:43:55.930Z,16.40
2022-12-11T06:44:55.889Z,15.60
2022-12-11T06:46:00.617Z,15.50
2022-12-11T06:46:56.905Z,15.50
2022-12-11T06:47:55.877Z,16.30
2022-12-11T06:48:55.870Z,17.00
2022-12-11T06:49:55.852Z,15.30
2022-12-11T06:50:55.836Z,15.90
2022-12-11T06:51:55.811Z,16.20
2022-12-11T06:52:55.812Z,15.40
2022-12-11T06:53:55.825Z,16.30
2022-12-11T06:54:55.834Z,15.70
2022-12-11T06:55:55.772Z,16.00
2022-12-11T06:56:55.765Z,16.80
2022-12-11T06:57:55.757Z,15.80
2022-12-11T06:58:55.755Z,16.60
2022-12-11T06:59:55.743Z,16.20
2022-12-11T07:00:55.786Z,16.80
2022-12-11T07:01:55.735Z,16.10
2022-12-11T07:02:55.674Z,16.50
2022-12-11T07:03:55.687Z,16.20
2022-12-11T07:04:55.697Z,16.30
2022-12-11T07:05:55.653Z,16.10
2022-12-11T07:06:55.683Z,16.40
2022-12-11T07:07:55.729Z,16.20
2022-12-11T07:08:55.613Z,16.50
2022-12-11T07:09:55.615Z,16.40
2022-12-11T07:10:55.584Z,15.80
2022-12-11T07:11:55.624Z,16.30
2022-12-11T07:12:55.565Z,15.50
2022-12-11T07:13:55.597Z,17.00
2022-12-11T07:14:55.556Z,15.80
2022-12-11T07:15:55.570Z,17.00
2022-12-11T07:16:55.529Z,16.80
2022-12-11T07:17:55.517Z,16.10
2022-12-11T07:18:55.519Z,16.20
2022-12-11T07:19:55.595Z,16.60
2022-12-11T07:20:55.489Z,17.20
2022-12-11T07:21:55.488Z,16.00
2022-12-11T07:22:55.469Z,16.30
2022-12-11T07:23:55.437Z,16.60
2022-12-11T07:24:55.436Z,16.90
2022-12-11T07:25:55.480Z,17.20
2022-12-11T07:26:55.410Z,16.70
2022-12-11T07:27:55.401Z,15.90
2022-12-11T07:28:55.405Z,16.60
2022-12-11T07:29:55.380Z,15.80
2022-12-11T07:30:55.395Z,16.90
2022-12-11T07:31:55.466Z,16.80
2022-12-11T07:32:55.432Z,16.10
2022-12-11T07:33:55.342Z,15.50
2022-12-11T07:34:55.331Z,16.40
2022-12-11T07:35:55.347Z,16.30
2022-12-11T07:36:55.401Z,15.20
2022-12-11T07:37:55.290Z,16.70
2022-12-11T07:38:55.275Z,15.90
2022-12-11T07:39:55.248Z,16.20
2022-12-11T07:40:55.280Z,16.80
2022-12-11T07:41:55.245Z,15.80
2022-12-11T07:42:55.282Z,15.20
2022-12-11T07:43:55.258Z,14.80
2022-12-11T07:44:55.211Z,14.60
2022-12-11T07:45:55.299Z,15.50
2022-12-11T07:46:55.192Z,13.70
2022-12-11T07:47:55.160Z,15.10
2022-12-11T07:48:55.179Z,14.20
2022-12-11T07:49:55.158Z,15.70
2022-12-11T07:50:55.143Z,14.80
2022-12-11T07:51:55.111Z,15.00
2022-12-11T07:52:55.109Z,15.20
2022-12-11T07:53:55.094Z,13.70
2022-12-11T07:54:55.125Z,14.00
2022-12-11T07:55:55.080Z,14.40
2022-12-11T07:56:55.071Z,14.50
2022-12-11T07:57:55.087Z,15.10
2022-12-11T07:58:55.061Z,14.20
2022-12-11T07:59:55.021Z,14.50
2022-12-11T08:00:55.071Z,14.50
2022-12-11T08:01:55.041Z,14.30
2022-12-11T08:02:55.074Z,14.50
2022-12-11T08:03:54.996Z,14.70
2022-12-11T08:04:54.993Z,14.30
2022-12-11T08:05:54.974Z,15.30
2022-12-11T08:06:54.986Z,15.30
2022-12-11T08:07:55.006Z,15.00
2022-12-11T08:08:54.957Z,15.10
2022-12-11T08:09:54.924Z,15.20
2022-12-11T08:10:54.907Z,14.20
2022-12-11T08:11:54.893Z,15.10
2022-12-11T08:12:54.900Z,14.60
2022-12-11T08:13:54.873Z,14.50
2022-12-11T08:14:54.927Z,14.40
2022-12-11T08:15:55.001Z,14.80
2022-12-11T08:16:54.872Z,14.80
2022-12-11T08:17:54.828Z,15.50
2022-12-11T08:18:54.805Z,15.00
2022-12-11T08:19:54.809Z,15.80
2022-12-11T08:20:54.848Z,16.10
2022-12-11T08:21:54.786Z,15.40
2022-12-11T08:22:59.040Z,16.40
2022-12-11T08:23:54.744Z,15.50
2022-12-11T08:24:54.759Z,15.90
2022-12-11T08:25:54.788Z,15.70
2022-12-11T08:26:54.705Z,15.00
2022-12-11T08:27:54.705Z,15.50
2022-12-11T08:28:54.697Z,14.40
2022-12-11T08:29:54.708Z,14.40
2022-12-11T08:30:54.777Z,15.10
2022-12-11T08:31:54.658Z,13.70
2022-12-11T08:32:54.662Z,14.10
2022-12-11T08:33:54.650Z,14.50
2022-12-11T08:34:54.658Z,15.10
2022-12-11T08:35:54.636Z,13.60
2022-12-11T08:36:54.639Z,13.00
2022-12-11T08:37:54.610Z,14.00
2022-12-11T08:38:54.599Z,14.50
2022-12-11T08:39:54.582Z,13.80
2022-12-11T08:40:54.547Z,13.70
2022-12-11T08:41:54.584Z,15.00
2022-12-11T08:42:54.539Z,14.20
2022-12-11T08:43:54.551Z,14.70
2022-12-11T08:44:54.509Z,14.70
2022-12-11T08:45:54.548Z,15.40
2022-12-11T08:46:54.527Z,14.90
2022-12-11T08:47:54.471Z,14.90
2022-12-11T08:48:54.502Z,15.00
2022-12-11T08:49:54.451Z,14.90
2022-12-11T08:50:54.453Z,15.20
2022-12-11T08:51:54.504Z,13.80
2022-12-11T08:52:54.409Z,14.90
2022-12-11T08:53:54.400Z,15.10
2022-12-11T08:54:54.403Z,15.30
2022-12-11T08:55:54.379Z,15.10
2022-12-11T08:56:57.955Z,15.20
2022-12-11T08:57:54.402Z,14.00
2022-12-11T08:58:54.353Z,14.50
2022-12-11T08:59:54.351Z,15.30
2022-12-11T09:00:54.369Z,14.90
2022-12-11T09:01:54.324Z,14.40
2022-12-11T09:02:54.350Z,13.80
2022-12-11T09:03:54.325Z,15.10
2022-12-11T09:04:54.292Z,15.40
2022-12-11T09:05:54.322Z,14.60
2022-12-11T09:06:54.261Z,15.90
2022-12-11T09:07:54.296Z,15.10
2022-12-11T09:08:54.260Z,14.30
2022-12-11T09:09:54.236Z,14.70
2022-12-11T09:10:54.202Z,15.70
2022-12-11T09:11:54.222Z,15.10
2022-12-11T09:12:54.193Z,15.90
2022-12-11T09:13:54.191Z,15.10
2022-12-11T09:14:54.194Z,16.70
2022-12-11T09:15:54.208Z,16.40
2022-12-11T09:16:54.177Z,15.80
2022-12-11T09:17:54.137Z,16.30
2022-12-11T09:18:54.137Z,15.40
2022-12-11T09:19:54.146Z,17.30
2022-12-11T09:20:54.108Z,16.60
2022-12-11T09:21:54.133Z,15.80
2022-12-11T09:22:54.064Z,16.40
2022-12-11T09:23:54.067Z,15.60
2022-12-11T09:24:54.044Z,16.00
2022-12-11T09:25:54.048Z,14.90
2022-12-11T09:26:54.089Z,15.20
2022-12-11T09:27:54.006Z,15.00
2022-12-11T09:28:54.040Z,15.90
2022-12-11T09:29:54.005Z,15.40
2022-12-11T09:30:54.014Z,15.40
2022-12-11T09:31:54.006Z,15.40
2022-12-11T09:32:53.968Z,15.90
2022-12-11T09:33:53.958Z,16.90
2022-12-11T09:34:53.944Z,16.40
2022-12-11T09:35:53.919Z,17.40
2022-12-11T09:36:53.936Z,18.40
2022-12-11T09:37:53.909Z,18.40
2022-12-11T09:38:53.921Z,18.30
2022-12-11T09:39:53.870Z,17.00
2022-12-11T09:40:53.871Z,15.40
2022-12-11T09:41:53.836Z,16.00
2022-12-11T09:42:53.892Z,16.00
2022-12-11T09:43:53.841Z,15.20
2022-12-11T09:44:53.851Z,15.70
2022-12-11T09:45:53.861Z,15.40
2022-12-11T09:46:53.868Z,16.20
2022-12-11T09:47:53.790Z,15.50
2022-12-11T09:48:53.813Z,15.70
2022-12-11T09:49:53.769Z,15.70
2022-12-11T09:50:53.750Z,16.30
2022-12-11T09:51:53.764Z,17.20
2022-12-11T09:52:53.748Z,17.00
2022-12-11T09:53:53.720Z,15.90
2022-12-11T09:54:53.714Z,16.40
2022-12-11T09:55:53.700Z,16.00
2022-12-11T09:56:53.710Z,16.80
2022-12-11T09:57:53.679Z,16.40
2022-12-11T09:58:53.701Z,16.50
2022-12-11T09:59:53.653Z,16.70
2022-12-11T10:00:53.621Z,17.20
2022-12-11T10:01:53.679Z,17.40
2022-12-11T10:02:53.646Z,17.50
2022-12-11T10:03:53.590Z,16.70
2022-12-11T10:04:53.600Z,17.30
2022-12-11T10:05:53.591Z,17.30
2022-12-11T10:06:53.572Z,16.20
2022-12-11T10:07:53.595Z,17.20
2022-12-11T10:08:53.567Z,18.80
2022-12-11T10:09:53.522Z,17.20
2022-12-11T10:10:53.556Z,17.90
2022-12-11T10:11:56.662Z,17.00
2022-12-11T10:12:53.525Z,17.70
2022-12-11T10:13:53.472Z,17.50
2022-12-11T10:14:53.552Z,17.60
2022-12-11T10:15:53.544Z,18.10
2022-12-11T10:16:53.477Z,17.90
2022-12-11T10:17:53.447Z,19.30
2022-12-11T10:18:53.432Z,18.40
2022-12-11T10:19:53.447Z,17.90
2022-12-11T10:20:53.393Z,19.30
2022-12-11T10:21:53.438Z,16.90
2022-12-11T10:22:53.377Z,16.50
2022-12-11T10:23:53.397Z,16.30
2022-12-11T10:25:54.365Z,16.50
2022-12-11T10:26:53.358Z,17.10
2022-12-11T10:27:53.345Z,17.50
2022-12-11T10:28:53.327Z,17.30
2022-12-11T10:29:53.319Z,17.00
2022-12-11T10:30:53.340Z,16.90
2022-12-11T10:31:53.273Z,16.10
2022-12-11T10:32:53.298Z,16.60
2022-12-11T10:33:53.286Z,16.50
2022-12-11T10:34:53.244Z,16.30
2022-12-11T10:35:53.238Z,17.00
2022-12-11T10:36:57.365Z,16.30
2022-12-11T10:37:54.226Z,16.70
2022-12-11T10:38:53.235Z,16.50
2022-12-11T10:39:53.199Z,15.40
2022-12-11T10:40:53.200Z,15.60
2022-12-11T10:41:53.176Z,17.20
2022-12-11T10:42:53.161Z,16.20
2022-12-11T10:43:53.147Z,15.90
2022-12-11T10:44:53.181Z,16.60
2022-12-11T10:45:53.123Z,16.10
2022-12-11T10:46:53.154Z,15.90
2022-12-11T10:47:53.088Z,16.20
2022-12-11T10:48:53.120Z,16.40
2022-12-11T10:49:53.067Z,16.70
2022-12-11T10:50:53.072Z,16.60
2022-12-11T10:51:53.052Z,16.30
2022-12-11T10:52:53.077Z,17.30
2022-12-11T10:53:53.040Z,17.30
2022-12-11T10:54:53.029Z,16.40
2022-12-11T10:55:53.021Z,17.00
2022-12-11T10:56:52.994Z,16.00
2022-12-11T10:57:52.968Z,16.40
2022-12-11T10:58:53.013Z,17.60
2022-12-11T10:59:52.992Z,16.70
2022-12-11T11:00:52.976Z,17.10
2022-12-11T11:01:53.042Z,16.80
2022-12-11T11:02:52.993Z,17.20
2022-12-11T11:03:52.935Z,16.50
2022-12-11T11:04:52.937Z,15.70
2022-12-11T11:05:52.909Z,16.80
2022-12-11T11:06:52.870Z,17.00
2022-12-11T11:07:52.969Z,17.30
2022-12-11T11:08:52.884Z,17.40
2022-12-11T11:09:52.880Z,16.40
2022-12-11T11:10:52.863Z,16.20
2022-12-11T11:11:52.838Z,17.20
2022-12-11T11:12:52.835Z,17.70
2022-12-11T11:13:52.781Z,18.10
2022-12-11T11:14:52.781Z,16.90
2022-12-11T11:15:52.861Z,16.60
2022-12-11T11:16:52.752Z,17.10
2022-12-11T11:17:55.463Z,17.00
2022-12-11T11:18:52.753Z,17.30
2022-12-11T11:19:52.738Z,17.60
2022-12-11T11:20:52.715Z,17.30
2022-12-11T11:21:52.734Z,18.20
2022-12-11T11:22:52.683Z,17.10
2022-12-11T11:23:53.629Z,17.40
2022-12-11T11:24:52.676Z,16.80
2022-12-11T11:25:52.655Z,17.00
2022-12-11T11:27:53.624Z,15.90
2022-12-11T11:28:52.657Z,17.60
2022-12-11T11:29:53.369Z,17.60
2022-12-11T11:30:52.617Z,17.40
2022-12-11T11:31:52.585Z,17.80
2022-12-11T11:32:52.595Z,17.40
2022-12-11T11:33:52.586Z,17.60
2022-12-11T11:34:52.555Z,17.30
2022-12-11T11:35:52.549Z,17.40
2022-12-11T11:36:52.526Z,17.70
2022-12-11T11:37:52.566Z,17.90
2022-12-11T11:38:52.539Z,16.70
2022-12-11T11:39:52.486Z,16.30
2022-12-11T11:40:52.488Z,17.70
2022-12-11T11:41:52.525Z,16.80
2022-12-11T11:42:52.499Z,17.70
2022-12-11T11:43:52.461Z,16.60
2022-12-11T11:44:52.465Z,17.80
2022-12-11T11:45:52.442Z,17.60
2022-12-11T11:46:52.472Z,17.80
2022-12-11T11:47:52.416Z,18.50
2022-12-11T11:48:52.391Z,17.30
2022-12-11T11:49:52.420Z,16.50
2022-12-11T11:50:52.411Z,17.60
2022-12-11T11:51:52.371Z,17.10
2022-12-11T11:52:52.412Z,17.20
2022-12-11T11:53:52.343Z,17.40
2022-12-11T11:54:52.331Z,17.80
2022-12-11T11:55:52.350Z,17.60
2022-12-11T11:56:52.312Z,17.50
2022-12-11T11:57:52.309Z,18.00
2022-12-11T11:58:52.323Z,17.20
2022-12-11T11:59:52.280Z,17.80
2022-12-11T12:00:52.259Z,18.00
2022-12-11T12:01:52.240Z,17.70
2022-12-11T12:02:52.319Z,17.60
2022-12-11T12:03:52.235Z,18.30
2022-12-11T12:04:52.274Z,17.20
2022-12-11T12:05:52.296Z,16.90
2022-12-11T12:06:52.198Z,17.10
2022-12-11T12:07:52.220Z,17.60
2022-12-11T12:08:52.174Z,18.40
2022-12-11T12:09:52.193Z,18.00
2022-12-11T12:10:52.192Z,17.10
2022-12-11T12:11:52.131Z,17.30
2022-12-11T12:12:52.100Z,17.30
2022-12-11T12:13:52.114Z,18.00
2022-12-11T12:14:52.881Z,18.00
2022-12-11T12:15:52.142Z,17.20
2022-12-11T12:16:53.668Z,18.10
2022-12-11T12:17:55.733Z,17.70
2022-12-11T12:18:52.047Z,17.90
2022-12-11T12:19:52.056Z,18.10
2022-12-11T12:20:52.055Z,18.80
2022-12-11T12:21:52.016Z,18.40
2022-12-11T12:22:52.015Z,18.40
2022-12-11T12:23:51.998Z,17.90
2022-12-11T12:24:51.976Z,18.90
2022-12-11T12:25:52.065Z,18.40
2022-12-11T12:26:51.977Z,19.90
2022-12-11T12:27:53.047Z,17.80
2022-12-11T12:28:51.947Z,18.00
2022-12-11T12:29:51.957Z,18.80
2022-12-11T12:30:51.926Z,18.60
2022-12-11T12:31:51.958Z,19.00
2022-12-11T12:32:51.875Z,17.90
2022-12-11T12:33:51.878Z,19.30
2022-12-11T12:34:51.886Z,18.70
2022-12-11T12:35:51.991Z,17.70
2022-12-11T12:36:51.845Z,19.10
2022-12-11T12:37:51.825Z,18.60
2022-12-11T12:38:51.838Z,17.00
2022-12-11T12:39:51.816Z,17.90
2022-12-11T12:40:51.801Z,17.50
2022-12-11T12:41:51.826Z,17.80
2022-12-11T12:42:51.764Z,17.60
2022-12-11T12:43:51.816Z,18.00
2022-12-11T12:44:51.765Z,17.20
2022-12-11T12:45:51.760Z,18.20
2022-12-11T12:46:51.731Z,17.20
2022-12-11T12:47:53.497Z,18.10
2022-12-11T12:48:51.711Z,17.30
2022-12-11T12:49:51.711Z,17.60
2022-12-11T12:50:51.697Z,17.20
2022-12-11T12:51:51.658Z,17.40
2022-12-11T12:52:51.680Z,17.20
2022-12-11T12:53:51.635Z,17.00